RYR6RR EGSS-LEAM
Flight info
| Callsign | RYR6RR |
|---|---|
| Flight time | 2h 43m |
| Altitude | 36000 |
| Route | NUGBO M183 SILVA Q41 SAM N63 LELNA/N0440F350 DCT NOVAN/N0439F370 DCT NENEM P152 PPN N10 CJN L27 BLN N865 ESILA |
| Aircraft | B738/M-SDE3FGILRWY/SB1 |
Departure
| Time | 2026-04-22 18:07 |
|---|---|
| Airport | London Stansted Airport (EGSS) |
Arrival
| Time | 2026-04-22 20:50 |
|---|---|
| Airport | Almería Airport (LEAM) |
| Time | Latitude | Longitude | Altitude | Speed | Heading |
|---|---|---|---|---|---|
| 2026-04-22 17:41 | 51.89366 | 0.25734 | 355 ft | 0 kts | 42° |
| 2026-04-22 17:55 | 51.89365 | 0.25733 | 351 ft | 1 kts | 42° |
| 2026-04-22 17:56 | 51.89350 | 0.25710 | 354 ft | 2 kts | 43° |
| 2026-04-22 17:56 | 51.89332 | 0.25691 | 358 ft | 4 kts | 353° |
| 2026-04-22 17:56 | 51.89313 | 0.25709 | 361 ft | 4 kts | 313° |
| 2026-04-22 17:56 | 51.89304 | 0.25724 | 359 ft | 0 kts | 313° |
| 2026-04-22 18:00 | 51.89321 | 0.25696 | 353 ft | 7 kts | 313° |
| 2026-04-22 18:01 | 51.89366 | 0.25597 | 356 ft | 14 kts | 280° |
| 2026-04-22 18:01 | 51.89295 | 0.25455 | 351 ft | 19 kts | 223° |
| 2026-04-22 18:01 | 51.89195 | 0.25304 | 359 ft | 20 kts | 223° |
| 2026-04-22 18:01 | 51.89093 | 0.25152 | 354 ft | 20 kts | 223° |
| 2026-04-22 18:02 | 51.88995 | 0.25005 | 356 ft | 19 kts | 223° |
| 2026-04-22 18:02 | 51.88893 | 0.24853 | 356 ft | 21 kts | 223° |
| 2026-04-22 18:02 | 51.88778 | 0.24679 | 353 ft | 24 kts | 223° |
| 2026-04-22 18:02 | 51.88643 | 0.24476 | 350 ft | 27 kts | 223° |
| 2026-04-22 18:03 | 51.88508 | 0.24273 | 344 ft | 26 kts | 223° |
| 2026-04-22 18:03 | 51.88381 | 0.24083 | 344 ft | 24 kts | 223° |
| 2026-04-22 18:03 | 51.88262 | 0.23905 | 348 ft | 23 kts | 223° |
| 2026-04-22 18:03 | 51.88145 | 0.23731 | 337 ft | 23 kts | 223° |
| 2026-04-22 18:04 | 51.88029 | 0.23558 | 339 ft | 22 kts | 223° |
| 2026-04-22 18:04 | 51.87916 | 0.23387 | 340 ft | 23 kts | 222° |
| 2026-04-22 18:04 | 51.87800 | 0.23214 | 339 ft | 22 kts | 223° |
| 2026-04-22 18:04 | 51.87727 | 0.23067 | 338 ft | 14 kts | 274° |
| 2026-04-22 18:05 | 51.87766 | 0.22932 | 337 ft | 13 kts | 287° |
| 2026-04-22 18:05 | 51.87719 | 0.22794 | 335 ft | 19 kts | 222° |
| 2026-04-22 18:05 | 51.87616 | 0.22636 | 335 ft | 21 kts | 224° |
| 2026-04-22 18:05 | 51.87521 | 0.22478 | 330 ft | 16 kts | 255° |
| 2026-04-22 18:06 | 51.87576 | 0.22328 | 323 ft | 17 kts | 314° |
| 2026-04-22 18:06 | 51.87686 | 0.22267 | 325 ft | 18 kts | 22° |
| 2026-04-22 18:06 | 51.87791 | 0.22416 | 327 ft | 34 kts | 43° |
| 2026-04-22 18:06 | 51.88126 | 0.22920 | 329 ft | 96 kts | 43° |
| 2026-04-22 18:07 | 51.88509 | 0.23493 | 341 ft | 130 kts | 43° |
| 2026-04-22 18:07 | 51.89533 | 0.25029 | 744 ft | 155 kts | 45° |
| 2026-04-22 18:07 | 51.90360 | 0.26224 | 1319 ft | 167 kts | 45° |
| 2026-04-22 18:07 | 51.91267 | 0.27500 | 1896 ft | 176 kts | 45° |
| 2026-04-22 18:08 | 51.92202 | 0.28875 | 2333 ft | 192 kts | 44° |
| 2026-04-22 18:08 | 51.93442 | 0.29978 | 2485 ft | 220 kts | 18° |
| 2026-04-22 18:08 | 51.95035 | 0.29859 | 2846 ft | 242 kts | 346° |
| 2026-04-22 18:08 | 51.96493 | 0.28295 | 3059 ft | 269 kts | 310° |
| 2026-04-22 18:09 | 51.97237 | 0.25447 | 3486 ft | 283 kts | 280° |
| 2026-04-22 18:09 | 51.97528 | 0.22339 | 4356 ft | 278 kts | 275° |
| 2026-04-22 18:09 | 51.97772 | 0.19189 | 4991 ft | 285 kts | 276° |
| 2026-04-22 18:09 | 51.98018 | 0.15978 | 5680 ft | 288 kts | 276° |
| 2026-04-22 18:10 | 51.98304 | 0.12762 | 6452 ft | 288 kts | 277° |
| 2026-04-22 18:10 | 51.98626 | 0.09552 | 7173 ft | 290 kts | 277° |
| 2026-04-22 18:10 | 51.98925 | 0.06351 | 7820 ft | 292 kts | 270° |
| 2026-04-22 18:10 | 51.98672 | 0.03112 | 8463 ft | 290 kts | 253° |
| 2026-04-22 18:11 | 51.98214 | -0.00089 | 9138 ft | 294 kts | 255° |
| 2026-04-22 18:11 | 51.97777 | -0.03344 | 9777 ft | 297 kts | 255° |
| 2026-04-22 18:11 | 51.97345 | -0.06647 | 10387 ft | 301 kts | 255° |
| 2026-04-22 18:11 | 51.96905 | -0.10032 | 10740 ft | 316 kts | 255° |
| 2026-04-22 18:12 | 51.96435 | -0.13623 | 10906 ft | 335 kts | 256° |
| 2026-04-22 18:12 | 51.95940 | -0.17417 | 11082 ft | 353 kts | 255° |
| 2026-04-22 18:12 | 51.95593 | -0.20074 | 11326 ft | 360 kts | 256° |
| 2026-04-22 18:12 | 51.94903 | -0.25364 | 12125 ft | 364 kts | 255° |
| 2026-04-22 18:13 | 51.94555 | -0.28029 | 12534 ft | 366 kts | 256° |
| 2026-04-22 18:13 | 51.94457 | -0.28783 | 12664 ft | 366 kts | 255° |
| 2026-04-22 18:13 | 51.93916 | -0.32925 | 13346 ft | 368 kts | 256° |
| 2026-04-22 18:13 | 51.93378 | -0.37004 | 13969 ft | 372 kts | 255° |
| 2026-04-22 18:14 | 51.92832 | -0.41127 | 14555 ft | 376 kts | 255° |
| 2026-04-22 18:14 | 51.92278 | -0.45292 | 15162 ft | 379 kts | 256° |
| 2026-04-22 18:14 | 51.91722 | -0.49470 | 15781 ft | 382 kts | 256° |
| 2026-04-22 18:14 | 51.91158 | -0.53693 | 16404 ft | 384 kts | 255° |
| 2026-04-22 18:15 | 51.90781 | -0.56510 | 16764 ft | 388 kts | 256° |
| 2026-04-22 18:15 | 51.90209 | -0.60788 | 17346 ft | 392 kts | 255° |
| 2026-04-22 18:15 | 51.89625 | -0.65118 | 17989 ft | 393 kts | 255° |
| 2026-04-22 18:15 | 51.89040 | -0.69453 | 18618 ft | 395 kts | 256° |
| 2026-04-22 18:16 | 51.88447 | -0.73831 | 19047 ft | 401 kts | 256° |
| 2026-04-22 18:16 | 51.87849 | -0.78241 | 19585 ft | 403 kts | 257° |
| 2026-04-22 18:16 | 51.87244 | -0.82689 | 20087 ft | 405 kts | 257° |
| 2026-04-22 18:16 | 51.86635 | -0.87156 | 20642 ft | 406 kts | 258° |
| 2026-04-22 18:17 | 51.86016 | -0.91629 | 21175 ft | 408 kts | 257° |
| 2026-04-22 18:17 | 51.84938 | -0.95888 | 21569 ft | 417 kts | 237° |
| 2026-04-22 18:17 | 51.82938 | -0.99280 | 22154 ft | 417 kts | 217° |
| 2026-04-22 18:17 | 51.80414 | -1.01561 | 22749 ft | 419 kts | 200° |
| 2026-04-22 18:18 | 51.78537 | -1.02323 | 23072 ft | 422 kts | 191° |
| 2026-04-22 18:18 | 51.77487 | -1.02607 | 23175 ft | 425 kts | 190° |
| 2026-04-22 18:18 | 51.74908 | -1.03231 | 23440 ft | 430 kts | 189° |
| 2026-04-22 18:18 | 51.71945 | -1.03904 | 24001 ft | 429 kts | 189° |
| 2026-04-22 18:19 | 51.68982 | -1.04603 | 24382 ft | 432 kts | 189° |
| 2026-04-22 18:19 | 51.66007 | -1.05350 | 24713 ft | 436 kts | 191° |
| 2026-04-22 18:19 | 51.62989 | -1.06131 | 24972 ft | 441 kts | 190° |
| 2026-04-22 18:19 | 51.59970 | -1.07039 | 25384 ft | 441 kts | 194° |
| 2026-04-22 18:20 | 51.56992 | -1.08286 | 25697 ft | 444 kts | 198° |
| 2026-04-22 18:20 | 51.54014 | -1.09662 | 26085 ft | 444 kts | 198° |
| 2026-04-22 18:20 | 51.51041 | -1.11000 | 26559 ft | 444 kts | 197° |
| 2026-04-22 18:20 | 51.48051 | -1.12294 | 26870 ft | 447 kts | 197° |
| 2026-04-22 18:21 | 51.45031 | -1.13582 | 27110 ft | 451 kts | 197° |
| 2026-04-22 18:21 | 51.41995 | -1.14888 | 27528 ft | 451 kts | 197° |
| 2026-04-22 18:21 | 51.38967 | -1.16192 | 27896 ft | 452 kts | 197° |
| 2026-04-22 18:21 | 51.35917 | -1.17506 | 28157 ft | 455 kts | 197° |
| 2026-04-22 18:22 | 51.32851 | -1.18817 | 28458 ft | 457 kts | 197° |
| 2026-04-22 18:22 | 51.29778 | -1.20124 | 28848 ft | 457 kts | 197° |
| 2026-04-22 18:22 | 51.26699 | -1.21431 | 29162 ft | 459 kts | 197° |
| 2026-04-22 18:22 | 51.23649 | -1.22726 | 29424 ft | 461 kts | 197° |
| 2026-04-22 18:23 | 51.21551 | -1.23615 | 29615 ft | 462 kts | 197° |
| 2026-04-22 18:23 | 51.17937 | -1.25141 | 30007 ft | 463 kts | 197° |
| 2026-04-22 18:24 | 51.11732 | -1.27737 | 30791 ft | 459 kts | 197° |
| 2026-04-22 18:24 | 51.08645 | -1.29025 | 31075 ft | 459 kts | 197° |
| 2026-04-22 18:24 | 51.02452 | -1.31609 | 31612 ft | 460 kts | 198° |
| 2026-04-22 18:25 | 50.99354 | -1.32898 | 31934 ft | 460 kts | 198° |
| 2026-04-22 18:25 | 50.96270 | -1.34210 | 32230 ft | 458 kts | 200° |
| 2026-04-22 18:25 | 50.93309 | -1.36036 | 32465 ft | 455 kts | 210° |
| 2026-04-22 18:26 | 50.87702 | -1.40633 | 33045 ft | 453 kts | 211° |
| 2026-04-22 18:26 | 50.84916 | -1.42928 | 33422 ft | 450 kts | 211° |
| 2026-04-22 18:26 | 50.82140 | -1.45178 | 33820 ft | 447 kts | 210° |
| 2026-04-22 18:26 | 50.79363 | -1.47402 | 34060 ft | 448 kts | 210° |
| 2026-04-22 18:27 | 50.76573 | -1.49623 | 34243 ft | 449 kts | 210° |
| 2026-04-22 18:27 | 50.73777 | -1.51842 | 34437 ft | 450 kts | 210° |
| 2026-04-22 18:27 | 50.70986 | -1.54052 | 34693 ft | 448 kts | 210° |
| 2026-04-22 18:27 | 50.68205 | -1.56249 | 34950 ft | 447 kts | 210° |
| 2026-04-22 18:28 | 50.66368 | -1.57700 | 35101 ft | 446 kts | 210° |
| 2026-04-22 18:28 | 50.65568 | -1.58331 | 35170 ft | 446 kts | 210° |
| 2026-04-22 18:28 | 50.62854 | -1.60471 | 35362 ft | 445 kts | 210° |
| 2026-04-22 18:28 | 50.60092 | -1.62646 | 35676 ft | 442 kts | 210° |
| 2026-04-22 18:29 | 50.57345 | -1.64808 | 35916 ft | 441 kts | 210° |
| 2026-04-22 18:29 | 50.54598 | -1.66968 | 36077 ft | 442 kts | 210° |
| 2026-04-22 18:29 | 50.51850 | -1.69126 | 36222 ft | 442 kts | 210° |
| 2026-04-22 18:29 | 50.49088 | -1.71294 | 36252 ft | 445 kts | 210° |
| 2026-04-22 18:30 | 50.40849 | -1.77736 | 36251 ft | 441 kts | 210° |
| 2026-04-22 18:31 | 50.35381 | -1.81999 | 36247 ft | 437 kts | 211° |
| 2026-04-22 18:31 | 50.29950 | -1.86219 | 36242 ft | 435 kts | 209° |
| 2026-04-22 18:32 | 50.24547 | -1.90409 | 36241 ft | 433 kts | 210° |
| 2026-04-22 18:32 | 50.19158 | -1.94579 | 36233 ft | 432 kts | 210° |
| 2026-04-22 18:33 | 50.14682 | -1.98036 | 36236 ft | 432 kts | 211° |
| 2026-04-22 18:33 | 50.10781 | -2.01039 | 36240 ft | 432 kts | 209° |
| 2026-04-22 18:34 | 50.05379 | -2.05195 | 36228 ft | 434 kts | 209° |
| 2026-04-22 18:34 | 49.99957 | -2.09351 | 36228 ft | 435 kts | 210° |
| 2026-04-22 18:35 | 49.94285 | -2.12763 | 36231 ft | 440 kts | 200° |
| 2026-04-22 18:35 | 49.88384 | -2.15433 | 36223 ft | 442 kts | 200° |
| 2026-04-22 18:36 | 49.82461 | -2.18091 | 36212 ft | 444 kts | 200° |
| 2026-04-22 18:36 | 49.76535 | -2.20809 | 36211 ft | 444 kts | 200° |
| 2026-04-22 18:37 | 49.70608 | -2.23552 | 36208 ft | 445 kts | 200° |
| 2026-04-22 18:37 | 49.64688 | -2.26291 | 36218 ft | 442 kts | 200° |
| 2026-04-22 18:38 | 49.59832 | -2.28531 | 36200 ft | 435 kts | 200° |
| 2026-04-22 18:38 | 49.56254 | -2.30179 | 36209 ft | 434 kts | 200° |
| 2026-04-22 18:39 | 49.47595 | -2.34163 | 36181 ft | 433 kts | 200° |
| 2026-04-22 18:39 | 49.41830 | -2.36806 | 36184 ft | 432 kts | 200° |
| 2026-04-22 18:40 | 49.36104 | -2.39424 | 36187 ft | 432 kts | 200° |
| 2026-04-22 18:40 | 49.30335 | -2.42055 | 36181 ft | 433 kts | 200° |
| 2026-04-22 18:41 | 49.24560 | -2.44683 | 36177 ft | 433 kts | 201° |
| 2026-04-22 18:41 | 49.18774 | -2.47309 | 36176 ft | 434 kts | 201° |
| 2026-04-22 18:42 | 49.12981 | -2.49931 | 36173 ft | 435 kts | 201° |
| 2026-04-22 18:42 | 49.07174 | -2.52553 | 36171 ft | 435 kts | 201° |
| 2026-04-22 18:43 | 49.03907 | -2.54026 | 36153 ft | 435 kts | 201° |
| 2026-04-22 18:43 | 48.98094 | -2.56640 | 36155 ft | 435 kts | 201° |
| 2026-04-22 18:44 | 48.92284 | -2.59247 | 36149 ft | 435 kts | 201° |
| 2026-04-22 18:44 | 48.86470 | -2.61850 | 36156 ft | 435 kts | 201° |
| 2026-04-22 18:45 | 48.80667 | -2.64441 | 36158 ft | 434 kts | 201° |
| 2026-04-22 18:45 | 48.74880 | -2.67019 | 36147 ft | 433 kts | 201° |
| 2026-04-22 18:46 | 48.69115 | -2.69581 | 36143 ft | 431 kts | 201° |
| 2026-04-22 18:46 | 48.63377 | -2.72125 | 36146 ft | 429 kts | 201° |
| 2026-04-22 18:47 | 48.57658 | -2.74654 | 36141 ft | 427 kts | 201° |
| 2026-04-22 18:47 | 48.51959 | -2.77170 | 36140 ft | 426 kts | 201° |
| 2026-04-22 18:48 | 48.49411 | -2.78293 | 36136 ft | 426 kts | 201° |
| 2026-04-22 18:48 | 48.43649 | -2.80827 | 36134 ft | 426 kts | 201° |
| 2026-04-22 18:49 | 48.37962 | -2.83323 | 36129 ft | 426 kts | 201° |
| 2026-04-22 18:49 | 48.32268 | -2.85816 | 36145 ft | 427 kts | 201° |
| 2026-04-22 18:50 | 48.26556 | -2.88312 | 36131 ft | 428 kts | 201° |
| 2026-04-22 18:50 | 48.20828 | -2.90808 | 36142 ft | 429 kts | 201° |
| 2026-04-22 18:51 | 48.15123 | -2.93288 | 36120 ft | 430 kts | 201° |
| 2026-04-22 18:51 | 48.09364 | -2.95785 | 36123 ft | 431 kts | 201° |
| 2026-04-22 18:52 | 48.03599 | -2.98280 | 36130 ft | 432 kts | 201° |
| 2026-04-22 18:52 | 47.97822 | -3.00773 | 36121 ft | 432 kts | 201° |
| 2026-04-22 18:53 | 47.94559 | -3.02179 | 36116 ft | 433 kts | 201° |
| 2026-04-22 18:53 | 47.88778 | -3.04665 | 36109 ft | 432 kts | 201° |
| 2026-04-22 18:54 | 47.82997 | -3.07145 | 36113 ft | 432 kts | 201° |
| 2026-04-22 18:54 | 47.77213 | -3.09621 | 36105 ft | 432 kts | 201° |
| 2026-04-22 18:55 | 47.71435 | -3.12089 | 36097 ft | 432 kts | 201° |
| 2026-04-22 18:55 | 47.65660 | -3.14550 | 36102 ft | 432 kts | 201° |
| 2026-04-22 18:56 | 47.59887 | -3.17004 | 36102 ft | 432 kts | 201° |
| 2026-04-22 18:56 | 47.54116 | -3.19452 | 36093 ft | 431 kts | 201° |
| 2026-04-22 18:57 | 47.48344 | -3.21895 | 36090 ft | 431 kts | 201° |
| 2026-04-22 18:57 | 47.42576 | -3.24331 | 36088 ft | 431 kts | 201° |
| 2026-04-22 18:58 | 47.39385 | -3.25676 | 36086 ft | 431 kts | 201° |
| 2026-04-22 18:58 | 47.33615 | -3.28103 | 36064 ft | 431 kts | 201° |
| 2026-04-22 18:59 | 47.27840 | -3.30528 | 36074 ft | 431 kts | 201° |
| 2026-04-22 18:59 | 47.22070 | -3.32944 | 36077 ft | 431 kts | 201° |
| 2026-04-22 19:00 | 47.16282 | -3.35365 | 36205 ft | 434 kts | 201° |
| 2026-04-22 19:00 | 47.13380 | -3.36575 | 36443 ft | 432 kts | 201° |
| 2026-04-22 19:00 | 47.10492 | -3.37777 | 36671 ft | 431 kts | 201° |
| 2026-04-22 19:01 | 47.07607 | -3.38977 | 36853 ft | 431 kts | 201° |
| 2026-04-22 19:01 | 47.05699 | -3.39771 | 36959 ft | 431 kts | 201° |
| 2026-04-22 19:01 | 47.02817 | -3.40968 | 37060 ft | 431 kts | 201° |
| 2026-04-22 19:01 | 46.99924 | -3.42170 | 37052 ft | 433 kts | 201° |
| 2026-04-22 19:02 | 46.94132 | -3.44570 | 37056 ft | 431 kts | 201° |
| 2026-04-22 19:02 | 46.88371 | -3.46949 | 37054 ft | 429 kts | 201° |
| 2026-04-22 19:03 | 46.85394 | -3.48178 | 37053 ft | 428 kts | 201° |
| 2026-04-22 19:03 | 46.79982 | -3.50407 | 37069 ft | 426 kts | 201° |
| 2026-04-22 19:04 | 46.74272 | -3.52756 | 37069 ft | 426 kts | 201° |
| 2026-04-22 19:04 | 46.68563 | -3.55099 | 37068 ft | 427 kts | 201° |
| 2026-04-22 19:05 | 46.62841 | -3.57442 | 37067 ft | 428 kts | 200° |
| 2026-04-22 19:05 | 46.57100 | -3.59787 | 37064 ft | 429 kts | 200° |
| 2026-04-22 19:06 | 46.51334 | -3.62137 | 37064 ft | 431 kts | 200° |
| 2026-04-22 19:07 | 46.42654 | -3.65666 | 37057 ft | 433 kts | 200° |
| 2026-04-22 19:07 | 46.36852 | -3.68017 | 37065 ft | 433 kts | 200° |
| 2026-04-22 19:08 | 46.31893 | -3.69282 | 37075 ft | 441 kts | 187° |
| 2026-04-22 19:08 | 46.27934 | -3.69028 | 37051 ft | 447 kts | 175° |
| 2026-04-22 19:09 | 46.21794 | -3.67462 | 37063 ft | 448 kts | 174° |
| 2026-04-22 19:09 | 46.15662 | -3.65811 | 37059 ft | 448 kts | 174° |
| 2026-04-22 19:10 | 46.09536 | -3.64224 | 37054 ft | 447 kts | 174° |
| 2026-04-22 19:10 | 46.03412 | -3.62685 | 37060 ft | 446 kts | 175° |
| 2026-04-22 19:11 | 45.97299 | -3.61165 | 37065 ft | 446 kts | 175° |
| 2026-04-22 19:11 | 45.91191 | -3.59651 | 37050 ft | 445 kts | 174° |
| 2026-04-22 19:12 | 45.85094 | -3.58142 | 37062 ft | 444 kts | 175° |
| 2026-04-22 19:12 | 45.79007 | -3.56637 | 37062 ft | 444 kts | 175° |
| 2026-04-22 19:13 | 45.73946 | -3.55389 | 37061 ft | 444 kts | 175° |
| 2026-04-22 19:13 | 45.70098 | -3.54441 | 37052 ft | 443 kts | 174° |
| 2026-04-22 19:14 | 45.64021 | -3.52947 | 37063 ft | 443 kts | 174° |
| 2026-04-22 19:14 | 45.57943 | -3.51456 | 37063 ft | 443 kts | 174° |
| 2026-04-22 19:15 | 45.52894 | -3.50220 | 37049 ft | 443 kts | 174° |
| 2026-04-22 19:15 | 45.45784 | -3.48484 | 37066 ft | 444 kts | 174° |
| 2026-04-22 19:16 | 45.39697 | -3.47001 | 37072 ft | 444 kts | 174° |
| 2026-04-22 19:16 | 45.33596 | -3.45518 | 37070 ft | 445 kts | 174° |
| 2026-04-22 19:17 | 45.27484 | -3.44035 | 37066 ft | 446 kts | 174° |
| 2026-04-22 19:17 | 45.21409 | -3.42564 | 37072 ft | 446 kts | 174° |
| 2026-04-22 19:18 | 45.16275 | -3.41323 | 37073 ft | 447 kts | 174° |
| 2026-04-22 19:18 | 45.11996 | -3.40291 | 37066 ft | 447 kts | 174° |
| 2026-04-22 19:19 | 45.05867 | -3.38815 | 37058 ft | 447 kts | 174° |
| 2026-04-22 19:19 | 44.99732 | -3.37341 | 37067 ft | 447 kts | 174° |
| 2026-04-22 19:20 | 44.93599 | -3.35870 | 37063 ft | 447 kts | 174° |
| 2026-04-22 19:20 | 44.87476 | -3.34405 | 37074 ft | 446 kts | 174° |
| 2026-04-22 19:21 | 44.81359 | -3.32945 | 37074 ft | 446 kts | 174° |
| 2026-04-22 19:21 | 44.75246 | -3.31489 | 37062 ft | 445 kts | 174° |
| 2026-04-22 19:22 | 44.69142 | -3.30039 | 37074 ft | 445 kts | 174° |
| 2026-04-22 19:22 | 44.63044 | -3.28592 | 37078 ft | 444 kts | 174° |
| 2026-04-22 19:23 | 44.57983 | -3.27394 | 37060 ft | 444 kts | 174° |
| 2026-04-22 19:23 | 44.53942 | -3.26439 | 37080 ft | 443 kts | 174° |
| 2026-04-22 19:24 | 44.47859 | -3.25004 | 37080 ft | 443 kts | 174° |
| 2026-04-22 19:24 | 44.41780 | -3.23573 | 37084 ft | 443 kts | 174° |
| 2026-04-22 19:25 | 44.35703 | -3.22146 | 37079 ft | 443 kts | 174° |
| 2026-04-22 19:25 | 44.29634 | -3.20723 | 37085 ft | 442 kts | 174° |
| 2026-04-22 19:26 | 44.23561 | -3.19302 | 37089 ft | 442 kts | 174° |
| 2026-04-22 19:26 | 44.17492 | -3.17885 | 37077 ft | 442 kts | 174° |
| 2026-04-22 19:27 | 44.11417 | -3.16469 | 37088 ft | 442 kts | 174° |
| 2026-04-22 19:27 | 44.05454 | -3.14305 | 37095 ft | 449 kts | 159° |
| 2026-04-22 19:28 | 44.00984 | -3.10576 | 37082 ft | 456 kts | 144° |
| 2026-04-22 19:28 | 43.98186 | -3.07382 | 37094 ft | 456 kts | 143° |
| 2026-04-22 19:29 | 43.93298 | -3.01764 | 37088 ft | 456 kts | 143° |
| 2026-04-22 19:29 | 43.88375 | -2.96199 | 37092 ft | 457 kts | 144° |
| 2026-04-22 19:30 | 43.84206 | -2.91723 | 37080 ft | 454 kts | 153° |
| 2026-04-22 19:30 | 43.80381 | -2.89417 | 37114 ft | 446 kts | 169° |
| 2026-04-22 19:30 | 43.77349 | -2.88631 | 37092 ft | 441 kts | 179° |
| 2026-04-22 19:31 | 43.71236 | -2.88062 | 37104 ft | 441 kts | 180° |
| 2026-04-22 19:31 | 43.65110 | -2.87481 | 37102 ft | 442 kts | 179° |
| 2026-04-22 19:32 | 43.59006 | -2.86860 | 37101 ft | 443 kts | 179° |
| 2026-04-22 19:32 | 43.52860 | -2.86214 | 37119 ft | 443 kts | 179° |
| 2026-04-22 19:33 | 43.47700 | -2.85668 | 37125 ft | 444 kts | 179° |
| 2026-04-22 19:33 | 43.44114 | -2.85288 | 37126 ft | 444 kts | 179° |
| 2026-04-22 19:34 | 43.37956 | -2.84640 | 37128 ft | 444 kts | 179° |
| 2026-04-22 19:34 | 43.31793 | -2.83992 | 37123 ft | 444 kts | 179° |
| 2026-04-22 19:35 | 43.25639 | -2.83347 | 37127 ft | 443 kts | 179° |
| 2026-04-22 19:35 | 43.20498 | -2.82809 | 37126 ft | 442 kts | 179° |
| 2026-04-22 19:36 | 43.13384 | -2.82064 | 37128 ft | 440 kts | 179° |
| 2026-04-22 19:36 | 43.07278 | -2.81430 | 37117 ft | 440 kts | 179° |
| 2026-04-22 19:37 | 43.01178 | -2.80796 | 37111 ft | 439 kts | 179° |
| 2026-04-22 19:37 | 42.95090 | -2.80165 | 37101 ft | 438 kts | 179° |
| 2026-04-22 19:38 | 42.90038 | -2.79642 | 37109 ft | 438 kts | 179° |
| 2026-04-22 19:38 | 42.86420 | -2.79268 | 37101 ft | 438 kts | 179° |
| 2026-04-22 19:39 | 42.80345 | -2.78641 | 37108 ft | 438 kts | 179° |
| 2026-04-22 19:39 | 42.74271 | -2.78015 | 37104 ft | 438 kts | 179° |
| 2026-04-22 19:40 | 42.68185 | -2.77390 | 37106 ft | 439 kts | 179° |
| 2026-04-22 19:40 | 42.62087 | -2.76764 | 37103 ft | 440 kts | 179° |
| 2026-04-22 19:41 | 42.55982 | -2.76139 | 37092 ft | 441 kts | 179° |
| 2026-04-22 19:41 | 42.49863 | -2.75513 | 37088 ft | 441 kts | 179° |
| 2026-04-22 19:42 | 42.43777 | -2.74892 | 37088 ft | 442 kts | 179° |
| 2026-04-22 19:42 | 42.37642 | -2.74267 | 37076 ft | 442 kts | 179° |
| 2026-04-22 19:43 | 42.32284 | -2.73723 | 37078 ft | 442 kts | 179° |
| 2026-04-22 19:43 | 42.26434 | -2.73130 | 37078 ft | 443 kts | 179° |
| 2026-04-22 19:44 | 42.20290 | -2.72507 | 37068 ft | 442 kts | 179° |
| 2026-04-22 19:44 | 42.14159 | -2.71887 | 37078 ft | 441 kts | 179° |
| 2026-04-22 19:45 | 42.08034 | -2.71269 | 37059 ft | 441 kts | 179° |
| 2026-04-22 19:45 | 42.01919 | -2.70653 | 37054 ft | 440 kts | 179° |
| 2026-04-22 19:46 | 41.96852 | -2.70144 | 37066 ft | 439 kts | 179° |
| 2026-04-22 19:46 | 41.90757 | -2.69533 | 37040 ft | 438 kts | 179° |
| 2026-04-22 19:47 | 41.84677 | -2.68924 | 37041 ft | 438 kts | 179° |
| 2026-04-22 19:47 | 41.78601 | -2.68317 | 37030 ft | 438 kts | 179° |
| 2026-04-22 19:48 | 41.75426 | -2.68000 | 37030 ft | 438 kts | 179° |
| 2026-04-22 19:48 | 41.69791 | -2.67438 | 37025 ft | 437 kts | 178° |
| 2026-04-22 19:49 | 41.63720 | -2.66834 | 37028 ft | 438 kts | 179° |
| 2026-04-22 19:49 | 41.57640 | -2.66231 | 37030 ft | 439 kts | 179° |
| 2026-04-22 19:50 | 41.51539 | -2.65627 | 37003 ft | 440 kts | 178° |
| 2026-04-22 19:50 | 41.45424 | -2.65022 | 37021 ft | 441 kts | 178° |
| 2026-04-22 19:51 | 41.39288 | -2.64416 | 37030 ft | 443 kts | 178° |
| 2026-04-22 19:51 | 41.33131 | -2.63809 | 37030 ft | 444 kts | 178° |
| 2026-04-22 19:52 | 41.26954 | -2.63202 | 37029 ft | 446 kts | 178° |
| 2026-04-22 19:52 | 41.20763 | -2.62594 | 37036 ft | 447 kts | 178° |
| 2026-04-22 19:53 | 41.17648 | -2.62288 | 37034 ft | 447 kts | 178° |
| 2026-04-22 19:53 | 41.11654 | -2.61702 | 37033 ft | 448 kts | 178° |
| 2026-04-22 19:54 | 41.05436 | -2.61094 | 37041 ft | 448 kts | 178° |
| 2026-04-22 19:54 | 40.99221 | -2.60487 | 37043 ft | 448 kts | 178° |
| 2026-04-22 19:55 | 40.93007 | -2.59882 | 37025 ft | 447 kts | 178° |
| 2026-04-22 19:55 | 40.86846 | -2.59284 | 37016 ft | 446 kts | 178° |
| 2026-04-22 19:56 | 40.80660 | -2.58683 | 37033 ft | 445 kts | 178° |
| 2026-04-22 19:56 | 40.74486 | -2.58086 | 37032 ft | 444 kts | 178° |
| 2026-04-22 19:57 | 40.68322 | -2.57490 | 37030 ft | 444 kts | 178° |
| 2026-04-22 19:57 | 40.62172 | -2.56897 | 37030 ft | 443 kts | 178° |
| 2026-04-22 19:58 | 40.59172 | -2.56609 | 37031 ft | 443 kts | 178° |
| 2026-04-22 19:58 | 40.53303 | -2.56044 | 37030 ft | 442 kts | 178° |
| 2026-04-22 20:00 | 40.32148 | -2.56880 | 37042 ft | 432 kts | 204° |
| 2026-04-22 20:01 | 40.26548 | -2.59763 | 37041 ft | 433 kts | 204° |
| 2026-04-22 20:01 | 40.20937 | -2.62643 | 37020 ft | 434 kts | 204° |
| 2026-04-22 20:02 | 40.15298 | -2.65488 | 37032 ft | 435 kts | 203° |
| 2026-04-22 20:02 | 40.09641 | -2.68316 | 37028 ft | 436 kts | 203° |
| 2026-04-22 20:03 | 40.04930 | -2.70665 | 37033 ft | 436 kts | 203° |
| 2026-04-22 20:03 | 40.00803 | -2.72720 | 37026 ft | 437 kts | 203° |
| 2026-04-22 20:04 | 39.95118 | -2.75547 | 37018 ft | 437 kts | 203° |
| 2026-04-22 20:04 | 39.89427 | -2.78372 | 37026 ft | 438 kts | 203° |
| 2026-04-22 20:05 | 39.83735 | -2.81194 | 37030 ft | 438 kts | 203° |
| 2026-04-22 20:05 | 39.78039 | -2.84012 | 37018 ft | 438 kts | 203° |
| 2026-04-22 20:06 | 39.72347 | -2.86824 | 37018 ft | 438 kts | 203° |
| 2026-04-22 20:06 | 39.66692 | -2.89613 | 37021 ft | 437 kts | 203° |
| 2026-04-22 20:07 | 39.61004 | -2.92413 | 37016 ft | 437 kts | 203° |
| 2026-04-22 20:07 | 39.55317 | -2.95211 | 37012 ft | 437 kts | 203° |
| 2026-04-22 20:08 | 39.50562 | -2.97555 | 37000 ft | 436 kts | 203° |
| 2026-04-22 20:08 | 39.47155 | -2.99233 | 37005 ft | 436 kts | 203° |
| 2026-04-22 20:09 | 39.41486 | -3.02020 | 37004 ft | 435 kts | 203° |
| 2026-04-22 20:09 | 39.35821 | -3.04787 | 37004 ft | 435 kts | 203° |
| 2026-04-22 20:10 | 39.30154 | -3.07535 | 36987 ft | 435 kts | 203° |
| 2026-04-22 20:10 | 39.24488 | -3.10278 | 37001 ft | 435 kts | 203° |
| 2026-04-22 20:11 | 39.18823 | -3.13020 | 37007 ft | 435 kts | 203° |
| 2026-04-22 20:11 | 39.13153 | -3.15760 | 37008 ft | 435 kts | 203° |
| 2026-04-22 20:12 | 39.07475 | -3.18499 | 37001 ft | 436 kts | 203° |
| 2026-04-22 20:12 | 39.02754 | -3.20774 | 37005 ft | 436 kts | 203° |
| 2026-04-22 20:13 | 38.97061 | -3.23513 | 37005 ft | 437 kts | 203° |
| 2026-04-22 20:13 | 38.93650 | -3.25157 | 37011 ft | 438 kts | 203° |
| 2026-04-22 20:14 | 38.87947 | -3.27905 | 37014 ft | 438 kts | 203° |
| 2026-04-22 20:14 | 38.82271 | -3.30635 | 37001 ft | 439 kts | 203° |
| 2026-04-22 20:15 | 38.76556 | -3.33379 | 37016 ft | 439 kts | 203° |
| 2026-04-22 20:15 | 38.70837 | -3.36120 | 37004 ft | 439 kts | 203° |
| 2026-04-22 20:16 | 38.65113 | -3.38859 | 37014 ft | 439 kts | 203° |
| 2026-04-22 20:16 | 38.59387 | -3.41593 | 37008 ft | 439 kts | 203° |
| 2026-04-22 20:17 | 38.53660 | -3.44324 | 37024 ft | 439 kts | 203° |
| 2026-04-22 20:17 | 38.47943 | -3.47045 | 37000 ft | 438 kts | 203° |
| 2026-04-22 20:18 | 38.43201 | -3.49299 | 37022 ft | 437 kts | 203° |
| 2026-04-22 20:18 | 38.39555 | -3.51030 | 36998 ft | 437 kts | 203° |
| 2026-04-22 20:19 | 38.33872 | -3.53724 | 37011 ft | 435 kts | 203° |
| 2026-04-22 20:19 | 38.28235 | -3.56391 | 36676 ft | 428 kts | 203° |
| 2026-04-22 20:19 | 38.25469 | -3.57698 | 36415 ft | 420 kts | 204° |
| 2026-04-22 20:20 | 38.22738 | -3.58989 | 36026 ft | 417 kts | 204° |
| 2026-04-22 20:20 | 38.20034 | -3.60265 | 35668 ft | 413 kts | 204° |
| 2026-04-22 20:20 | 38.17343 | -3.61519 | 35288 ft | 411 kts | 201° |
| 2026-04-22 20:20 | 38.14566 | -3.62387 | 34901 ft | 412 kts | 192° |
| 2026-04-22 20:21 | 38.11705 | -3.62658 | 34543 ft | 413 kts | 184° |
| 2026-04-22 20:21 | 38.08843 | -3.62669 | 34193 ft | 410 kts | 184° |
| 2026-04-22 20:21 | 38.05994 | -3.62653 | 33795 ft | 408 kts | 184° |
| 2026-04-22 20:21 | 38.03164 | -3.62639 | 33401 ft | 406 kts | 184° |
| 2026-04-22 20:22 | 38.00388 | -3.62636 | 33026 ft | 403 kts | 184° |
| 2026-04-22 20:22 | 37.97595 | -3.62645 | 32661 ft | 400 kts | 184° |
| 2026-04-22 20:22 | 37.94823 | -3.62661 | 32301 ft | 397 kts | 184° |
| 2026-04-22 20:22 | 37.92070 | -3.62681 | 31948 ft | 394 kts | 184° |
| 2026-04-22 20:23 | 37.90222 | -3.62695 | 31717 ft | 392 kts | 184° |
| 2026-04-22 20:23 | 37.86989 | -3.62722 | 31305 ft | 389 kts | 184° |
| 2026-04-22 20:23 | 37.84290 | -3.62744 | 30975 ft | 387 kts | 184° |
| 2026-04-22 20:24 | 37.81608 | -3.62767 | 30633 ft | 384 kts | 184° |
| 2026-04-22 20:24 | 37.78940 | -3.62788 | 30301 ft | 382 kts | 184° |
| 2026-04-22 20:24 | 37.76288 | -3.62810 | 29950 ft | 380 kts | 184° |
| 2026-04-22 20:24 | 37.73649 | -3.62832 | 29564 ft | 378 kts | 184° |
| 2026-04-22 20:25 | 37.71030 | -3.62852 | 29212 ft | 375 kts | 184° |
| 2026-04-22 20:25 | 37.68432 | -3.62873 | 28858 ft | 372 kts | 184° |
| 2026-04-22 20:25 | 37.65855 | -3.62898 | 28505 ft | 369 kts | 184° |
| 2026-04-22 20:25 | 37.63304 | -3.62916 | 28189 ft | 365 kts | 184° |
| 2026-04-22 20:26 | 37.60775 | -3.62933 | 27836 ft | 362 kts | 184° |
| 2026-04-22 20:26 | 37.58266 | -3.62951 | 27513 ft | 358 kts | 184° |
| 2026-04-22 20:26 | 37.55785 | -3.62970 | 27200 ft | 356 kts | 184° |
| 2026-04-22 20:26 | 37.53317 | -3.62989 | 26863 ft | 353 kts | 184° |
| 2026-04-22 20:27 | 37.50866 | -3.63009 | 26530 ft | 351 kts | 184° |
| 2026-04-22 20:27 | 37.48427 | -3.63028 | 26199 ft | 349 kts | 184° |
| 2026-04-22 20:27 | 37.46005 | -3.63046 | 25880 ft | 347 kts | 184° |
| 2026-04-22 20:27 | 37.43628 | -3.63065 | 25562 ft | 345 kts | 184° |
| 2026-04-22 20:28 | 37.42007 | -3.62974 | 25313 ft | 348 kts | 173° |
| 2026-04-22 20:28 | 37.40988 | -3.62659 | 25151 ft | 351 kts | 162° |
| 2026-04-22 20:28 | 37.38888 | -3.61089 | 24876 ft | 355 kts | 140° |
| 2026-04-22 20:28 | 37.37345 | -3.58663 | 24567 ft | 358 kts | 121° |
| 2026-04-22 20:29 | 37.36206 | -3.55888 | 24265 ft | 357 kts | 118° |
| 2026-04-22 20:29 | 37.35119 | -3.53083 | 23936 ft | 357 kts | 118° |
| 2026-04-22 20:29 | 37.34038 | -3.50277 | 23633 ft | 356 kts | 118° |
| 2026-04-22 20:29 | 37.32952 | -3.47485 | 23255 ft | 355 kts | 118° |
| 2026-04-22 20:30 | 37.31859 | -3.44706 | 22907 ft | 354 kts | 119° |
| 2026-04-22 20:30 | 37.30765 | -3.41950 | 22585 ft | 352 kts | 118° |
| 2026-04-22 20:30 | 37.29670 | -3.39203 | 22256 ft | 350 kts | 118° |
| 2026-04-22 20:30 | 37.28579 | -3.36478 | 21941 ft | 348 kts | 119° |
| 2026-04-22 20:31 | 37.27495 | -3.33770 | 21636 ft | 347 kts | 119° |
| 2026-04-22 20:31 | 37.26414 | -3.31074 | 21317 ft | 345 kts | 119° |
| 2026-04-22 20:31 | 37.25337 | -3.28393 | 21014 ft | 343 kts | 119° |
| 2026-04-22 20:31 | 37.24274 | -3.25727 | 20713 ft | 341 kts | 118° |
| 2026-04-22 20:32 | 37.23225 | -3.23069 | 20418 ft | 339 kts | 118° |
| 2026-04-22 20:32 | 37.22182 | -3.20421 | 20124 ft | 338 kts | 118° |
| 2026-04-22 20:32 | 37.21141 | -3.17779 | 19814 ft | 338 kts | 118° |
| 2026-04-22 20:32 | 37.20099 | -3.15137 | 19505 ft | 337 kts | 118° |
| 2026-04-22 20:33 | 37.19411 | -3.13397 | 19304 ft | 336 kts | 119° |
| 2026-04-22 20:33 | 37.19000 | -3.12357 | 19180 ft | 335 kts | 119° |
| 2026-04-22 20:33 | 37.17965 | -3.09741 | 18878 ft | 334 kts | 119° |
| 2026-04-22 20:33 | 37.16948 | -3.07172 | 18584 ft | 333 kts | 119° |
| 2026-04-22 20:34 | 37.15917 | -3.04568 | 18239 ft | 333 kts | 118° |
| 2026-04-22 20:34 | 37.14889 | -3.01976 | 17909 ft | 331 kts | 118° |
| 2026-04-22 20:34 | 37.13866 | -2.99399 | 17597 ft | 330 kts | 119° |
| 2026-04-22 20:34 | 37.12847 | -2.96835 | 17244 ft | 327 kts | 119° |
| 2026-04-22 20:35 | 37.11837 | -2.94298 | 16979 ft | 324 kts | 119° |
| 2026-04-22 20:35 | 37.10947 | -2.91688 | 16406 ft | 333 kts | 103° |
| 2026-04-22 20:35 | 37.10794 | -2.88798 | 16112 ft | 333 kts | 92° |
| 2026-04-22 20:35 | 37.10739 | -2.85890 | 15743 ft | 333 kts | 93° |
| 2026-04-22 20:36 | 37.10676 | -2.83000 | 15417 ft | 331 kts | 93° |
| 2026-04-22 20:36 | 37.10629 | -2.81057 | 15226 ft | 329 kts | 93° |
| 2026-04-22 20:36 | 37.10555 | -2.78202 | 14918 ft | 328 kts | 94° |
| 2026-04-22 20:36 | 37.10475 | -2.75354 | 14613 ft | 326 kts | 94° |
| 2026-04-22 20:37 | 37.10393 | -2.72517 | 14310 ft | 325 kts | 94° |
| 2026-04-22 20:37 | 37.10311 | -2.69685 | 13986 ft | 325 kts | 94° |
| 2026-04-22 20:37 | 37.10227 | -2.66867 | 13659 ft | 322 kts | 94° |
| 2026-04-22 20:37 | 37.10143 | -2.64073 | 13356 ft | 320 kts | 94° |
| 2026-04-22 20:38 | 37.10087 | -2.62229 | 13145 ft | 320 kts | 94° |
| 2026-04-22 20:38 | 37.10056 | -2.61210 | 13026 ft | 319 kts | 94° |
| 2026-04-22 20:38 | 37.09992 | -2.59120 | 12794 ft | 318 kts | 94° |
| 2026-04-22 20:38 | 37.09907 | -2.56361 | 12497 ft | 316 kts | 94° |
| 2026-04-22 20:39 | 37.09821 | -2.53617 | 12191 ft | 315 kts | 94° |
| 2026-04-22 20:39 | 37.09735 | -2.50888 | 11899 ft | 313 kts | 94° |
| 2026-04-22 20:39 | 37.09649 | -2.48169 | 11602 ft | 312 kts | 94° |
| 2026-04-22 20:39 | 37.09562 | -2.45464 | 11311 ft | 310 kts | 94° |
| 2026-04-22 20:40 | 37.09475 | -2.42769 | 11003 ft | 309 kts | 94° |
| 2026-04-22 20:40 | 37.09388 | -2.40087 | 10709 ft | 308 kts | 94° |
| 2026-04-22 20:40 | 37.09301 | -2.37419 | 10422 ft | 306 kts | 94° |
| 2026-04-22 20:40 | 37.09214 | -2.34759 | 10165 ft | 304 kts | 94° |
| 2026-04-22 20:41 | 37.09128 | -2.32150 | 10026 ft | 297 kts | 94° |
| 2026-04-22 20:41 | 37.09042 | -2.29568 | 9719 ft | 296 kts | 94° |
| 2026-04-22 20:41 | 37.08956 | -2.27029 | 9429 ft | 295 kts | 94° |
| 2026-04-22 20:41 | 37.08871 | -2.24472 | 9146 ft | 293 kts | 94° |
| 2026-04-22 20:42 | 37.08784 | -2.21929 | 8862 ft | 291 kts | 94° |
| 2026-04-22 20:42 | 37.08698 | -2.19403 | 8592 ft | 290 kts | 94° |
| 2026-04-22 20:42 | 37.08576 | -2.16892 | 8308 ft | 288 kts | 101° |
| 2026-04-22 20:42 | 37.07813 | -2.14632 | 8021 ft | 281 kts | 131° |
| 2026-04-22 20:43 | 37.06327 | -2.13198 | 7919 ft | 263 kts | 159° |
| 2026-04-22 20:43 | 37.04606 | -2.12764 | 7795 ft | 247 kts | 182° |
| 2026-04-22 20:43 | 37.02916 | -2.12946 | 7488 ft | 244 kts | 181° |
| 2026-04-22 20:43 | 37.01236 | -2.12604 | 7196 ft | 246 kts | 161° |
| 2026-04-22 20:44 | 36.99753 | -2.11556 | 6957 ft | 247 kts | 139° |
| 2026-04-22 20:44 | 36.98613 | -2.09955 | 6734 ft | 246 kts | 131° |
| 2026-04-22 20:44 | 36.97474 | -2.08362 | 6499 ft | 245 kts | 135° |
| 2026-04-22 20:44 | 36.96247 | -2.06895 | 6277 ft | 243 kts | 140° |
| 2026-04-22 20:45 | 36.94843 | -2.05773 | 5965 ft | 240 kts | 166° |
| 2026-04-22 20:45 | 36.93189 | -2.05805 | 5369 ft | 247 kts | 201° |
| 2026-04-22 20:45 | 36.91821 | -2.07118 | 4708 ft | 259 kts | 238° |
| 2026-04-22 20:45 | 36.91155 | -2.09215 | 4352 ft | 262 kts | 255° |
| 2026-04-22 20:46 | 36.90203 | -2.13440 | 3655 ft | 236 kts | 252° |
| 2026-04-22 20:46 | 36.89733 | -2.15320 | 3351 ft | 218 kts | 252° |
| 2026-04-22 20:46 | 36.89302 | -2.17062 | 3069 ft | 202 kts | 252° |
| 2026-04-22 20:47 | 36.88905 | -2.18670 | 2803 ft | 187 kts | 252° |
| 2026-04-22 20:47 | 36.88535 | -2.20173 | 2607 ft | 175 kts | 252° |
| 2026-04-22 20:47 | 36.88175 | -2.21632 | 2343 ft | 175 kts | 253° |
| 2026-04-22 20:47 | 36.87821 | -2.23071 | 2107 ft | 171 kts | 253° |
| 2026-04-22 20:48 | 36.87476 | -2.24471 | 1874 ft | 166 kts | 253° |
| 2026-04-22 20:48 | 36.87141 | -2.25835 | 1670 ft | 164 kts | 253° |
| 2026-04-22 20:48 | 36.86806 | -2.27196 | 1444 ft | 164 kts | 253° |
| 2026-04-22 20:48 | 36.86472 | -2.28553 | 1230 ft | 163 kts | 253° |
| 2026-04-22 20:49 | 36.86142 | -2.29896 | 1014 ft | 161 kts | 253° |
| 2026-04-22 20:49 | 36.85815 | -2.31224 | 790 ft | 160 kts | 253° |
| 2026-04-22 20:49 | 36.85495 | -2.32544 | 565 ft | 157 kts | 253° |
| 2026-04-22 20:49 | 36.85173 | -2.33843 | 350 ft | 157 kts | 253° |
| 2026-04-22 20:50 | 36.84851 | -2.35143 | 119 ft | 157 kts | 252° |
| 2026-04-22 20:50 | 36.84549 | -2.36391 | 54 ft | 130 kts | 251° |
| 2026-04-22 20:50 | 36.84345 | -2.37212 | 60 ft | 70 kts | 253° |
| 2026-04-22 20:50 | 36.84245 | -2.37626 | 61 ft | 45 kts | 253° |
| 2026-04-22 20:51 | 36.84194 | -2.37916 | 58 ft | 32 kts | 271° |
| 2026-04-22 20:51 | 36.84218 | -2.38147 | 63 ft | 15 kts | 277° |
| 2026-04-22 20:51 | 36.84277 | -2.38187 | 62 ft | 10 kts | 54° |
| 2026-04-22 20:51 | 36.84301 | -2.38103 | 61 ft | 10 kts | 75° |
| 2026-04-22 20:52 | 36.84321 | -2.38020 | 65 ft | 10 kts | 75° |
| 2026-04-22 20:52 | 36.84337 | -2.37952 | 57 ft | 5 kts | 71° |
| 2026-04-22 20:52 | 36.84348 | -2.37912 | 60 ft | 5 kts | 73° |
| 2026-04-22 20:52 | 36.84359 | -2.37863 | 65 ft | 8 kts | 73° |
| 2026-04-22 20:53 | 36.84385 | -2.37759 | 62 ft | 16 kts | 73° |
| 2026-04-22 20:53 | 36.84422 | -2.37609 | 64 ft | 9 kts | 73° |
| 2026-04-22 20:53 | 36.84434 | -2.37561 | 62 ft | 0 kts | 73° |
| 2026-04-22 20:54 | 36.84434 | -2.37560 | 62 ft | 2 kts | 73° |
| 2026-04-22 20:54 | 36.84471 | -2.37501 | 65 ft | 15 kts | 18° |
| 2026-04-22 20:55 | 36.84541 | -2.37430 | 66 ft | 14 kts | 71° |
| 2026-04-22 20:55 | 36.84572 | -2.37346 | 64 ft | 9 kts | 24° |
| 2026-04-22 20:55 | 36.84634 | -2.37362 | 62 ft | 9 kts | 344° |
| 2026-04-22 20:55 | 36.84644 | -2.37358 | 69 ft | 1 kts | 42° |
| 2026-04-22 20:56 | 36.84643 | -2.37352 | 69 ft | 1 kts | 88° |
| 2026-04-22 20:56 | 36.84637 | -2.37341 | 62 ft | 2 kts | 128° |
| 2026-04-22 20:56 | 36.84632 | -2.37330 | 65 ft | 0 kts | 118° |